sensor_id;sensor_type;location;lat;lon;timestamp;temperature;humidity
37285;DHT22;23172;53.550;9.964;2023-11-21T00:02:33;11.70;99.90
37285;DHT22;23172;53.550;9.964;2023-11-21T00:07:35;11.60;99.90
37285;DHT22;23172;53.550;9.964;2023-11-21T00:12:37;11.60;99.90
37285;DHT22;23172;53.550;9.964;2023-11-21T00:17:40;11.60;99.90
37285;DHT22;23172;53.550;9.964;2023-11-21T00:22:43;11.60;99.90
37285;DHT22;23172;53.550;9.964;2023-11-21T00:27:45;11.50;99.90
37285;DHT22;23172;53.550;9.964;2023-11-21T00:32:48;11.50;99.90
37285;DHT22;23172;53.550;9.964;2023-11-21T00:37:50;11.40;99.90
37285;DHT22;23172;53.550;9.964;2023-11-21T00:42:52;11.30;99.90
37285;DHT22;23172;53.550;9.964;2023-11-21T00:47:56;11.20;99.90
37285;DHT22;23172;53.550;9.964;2023-11-21T00:52:58;11.10;99.90
37285;DHT22;23172;53.550;9.964;2023-11-21T00:58:00;11.00;99.90
37285;DHT22;23172;53.550;9.964;2023-11-21T01:03:05;10.90;99.90
37285;DHT22;23172;53.550;9.964;2023-11-21T01:08:08;10.90;99.90
37285;DHT22;23172;53.550;9.964;2023-11-21T01:13:11;10.80;99.90
37285;DHT22;23172;53.550;9.964;2023-11-21T01:18:14;10.80;99.90
37285;DHT22;23172;53.550;9.964;2023-11-21T01:23:16;10.70;99.90
37285;DHT22;23172;53.550;9.964;2023-11-21T01:28:17;10.70;99.90
37285;DHT22;23172;53.550;9.964;2023-11-21T01:33:21;10.70;99.90
37285;DHT22;23172;53.550;9.964;2023-11-21T01:38:25;10.60;99.90
37285;DHT22;23172;53.550;9.964;2023-11-21T01:43:27;10.60;99.90
37285;DHT22;23172;53.550;9.964;2023-11-21T01:48:32;10.60;99.90
37285;DHT22;23172;53.550;9.964;2023-11-21T01:53:35;10.60;99.90
37285;DHT22;23172;53.550;9.964;2023-11-21T01:58:37;10.50;99.90
37285;DHT22;23172;53.550;9.964;2023-11-21T02:03:40;10.50;99.90
37285;DHT22;23172;53.550;9.964;2023-11-21T02:08:42;10.40;99.90
37285;DHT22;23172;53.550;9.964;2023-11-21T02:13:44;10.40;99.90
37285;DHT22;23172;53.550;9.964;2023-11-21T02:18:49;10.40;99.90
37285;DHT22;23172;53.550;9.964;2023-11-21T02:23:52;10.40;99.90
37285;DHT22;23172;53.550;9.964;2023-11-21T02:28:55;10.30;99.90
37285;DHT22;23172;53.550;9.964;2023-11-21T02:33:58;10.30;99.90
37285;DHT22;23172;53.550;9.964;2023-11-21T02:39:02;10.30;99.90
37285;DHT22;23172;53.550;9.964;2023-11-21T02:44:04;10.30;99.90
37285;DHT22;23172;53.550;9.964;2023-11-21T02:49:07;10.20;99.90
37285;DHT22;23172;53.550;9.964;2023-11-21T02:54:12;10.10;99.90
37285;DHT22;23172;53.550;9.964;2023-11-21T02:59:13;10.10;99.90
37285;DHT22;23172;53.550;9.964;2023-11-21T03:04:16;10.10;99.90
37285;DHT22;23172;53.550;9.964;2023-11-21T03:09:20;10.10;99.90
37285;DHT22;23172;53.550;9.964;2023-11-21T03:14:21;10.10;99.90
37285;DHT22;23172;53.550;9.964;2023-11-21T03:19:23;10.10;99.90
37285;DHT22;23172;53.550;9.964;2023-11-21T03:24:26;10.00;99.90
37285;DHT22;23172;53.550;9.964;2023-11-21T03:29:28;9.90;99.90
37285;DHT22;23172;53.550;9.964;2023-11-21T03:34:30;10.00;99.90
37285;DHT22;23172;53.550;9.964;2023-11-21T03:39:33;9.90;99.90
37285;DHT22;23172;53.550;9.964;2023-11-21T03:44:36;9.90;99.90
37285;DHT22;23172;53.550;9.964;2023-11-21T03:49:38;9.90;99.90
37285;DHT22;23172;53.550;9.964;2023-11-21T03:54:41;9.90;99.90
37285;DHT22;23172;53.550;9.964;2023-11-21T03:59:43;9.90;99.90
37285;DHT22;23172;53.550;9.964;2023-11-21T04:04:45;9.90;99.90
37285;DHT22;23172;53.550;9.964;2023-11-21T04:09:49;9.80;99.90
37285;DHT22;23172;53.550;9.964;2023-11-21T04:14:51;9.80;99.90
37285;DHT22;23172;53.550;9.964;2023-11-21T04:19:53;9.80;99.90
37285;DHT22;23172;53.550;9.964;2023-11-21T04:24:56;9.80;99.90
37285;DHT22;23172;53.550;9.964;2023-11-21T04:29:58;9.80;99.90
37285;DHT22;23172;53.550;9.964;2023-11-21T04:35:00;9.80;99.90
37285;DHT22;23172;53.550;9.964;2023-11-21T04:40:03;9.80;99.90
37285;DHT22;23172;53.550;9.964;2023-11-21T04:45:08;9.80;99.90
37285;DHT22;23172;53.550;9.964;2023-11-21T04:50:11;9.80;99.90
37285;DHT22;23172;53.550;9.964;2023-11-21T04:55:15;9.80;99.90
37285;DHT22;23172;53.550;9.964;2023-11-21T05:00:17;9.80;99.90
37285;DHT22;23172;53.550;9.964;2023-11-21T05:05:19;9.80;99.90
37285;DHT22;23172;53.550;9.964;2023-11-21T05:10:22;9.80;99.90
37285;DHT22;23172;53.550;9.964;2023-11-21T05:15:24;9.80;99.90
37285;DHT22;23172;53.550;9.964;2023-11-21T05:20:28;9.80;99.90
37285;DHT22;23172;53.550;9.964;2023-11-21T05:25:31;9.80;99.90
37285;DHT22;23172;53.550;9.964;2023-11-21T05:30:33;9.80;99.90
37285;DHT22;23172;53.550;9.964;2023-11-21T05:35:35;9.80;99.90
37285;DHT22;23172;53.550;9.964;2023-11-21T05:40:39;9.80;99.90
37285;DHT22;23172;53.550;9.964;2023-11-21T05:45:41;9.80;99.90
37285;DHT22;23172;53.550;9.964;2023-11-21T05:50:43;9.80;99.90
37285;DHT22;23172;53.550;9.964;2023-11-21T05:55:46;9.70;99.90
37285;DHT22;23172;53.550;9.964;2023-11-21T06:00:48;9.70;99.90
37285;DHT22;23172;53.550;9.964;2023-11-21T06:05:50;9.70;99.90
37285;DHT22;23172;53.550;9.964;2023-11-21T06:10:53;9.70;99.90
37285;DHT22;23172;53.550;9.964;2023-11-21T06:15:56;9.70;99.90
37285;DHT22;23172;53.550;9.964;2023-11-21T06:20:58;9.70;99.90
37285;DHT22;23172;53.550;9.964;2023-11-21T06:26:02;9.70;99.90
37285;DHT22;23172;53.550;9.964;2023-11-21T06:31:05;9.70;99.90
37285;DHT22;23172;53.550;9.964;2023-11-21T06:36:08;9.70;99.90
37285;DHT22;23172;53.550;9.964;2023-11-21T06:46:16;9.80;99.90
37285;DHT22;23172;53.550;9.964;2023-11-21T06:51:19;9.80;99.90
37285;DHT22;23172;53.550;9.964;2023-11-21T06:56:22;9.80;99.90
37285;DHT22;23172;53.550;9.964;2023-11-21T07:01:24;9.80;99.90
37285;DHT22;23172;53.550;9.964;2023-11-21T07:06:26;9.80;99.90
37285;DHT22;23172;53.550;9.964;2023-11-21T07:11:31;9.80;99.90
37285;DHT22;23172;53.550;9.964;2023-11-21T07:16:33;9.80;99.90
37285;DHT22;23172;53.550;9.964;2023-11-21T07:21:39;9.80;99.90
37285;DHT22;23172;53.550;9.964;2023-11-21T07:26:42;9.80;99.90
37285;DHT22;23172;53.550;9.964;2023-11-21T07:31:44;9.80;99.90
37285;DHT22;23172;53.550;9.964;2023-11-21T07:36:46;9.80;99.90
37285;DHT22;23172;53.550;9.964;2023-11-21T07:41:49;9.90;99.90
37285;DHT22;23172;53.550;9.964;2023-11-21T07:46:51;9.90;99.90
37285;DHT22;23172;53.550;9.964;2023-11-21T07:51:52;9.90;99.90
37285;DHT22;23172;53.550;9.964;2023-11-21T07:56:56;9.90;99.90
37285;DHT22;23172;53.550;9.964;2023-11-21T08:01:58;10.00;99.90
37285;DHT22;23172;53.550;9.964;2023-11-21T08:06:59;10.00;99.90
37285;DHT22;23172;53.550;9.964;2023-11-21T08:12:04;10.10;99.90
37285;DHT22;23172;53.550;9.964;2023-11-21T08:17:06;10.10;99.90
37285;DHT22;23172;53.550;9.964;2023-11-21T08:22:10;10.10;99.90
37285;DHT22;23172;53.550;9.964;2023-11-21T08:27:13;10.20;99.90
37285;DHT22;23172;53.550;9.964;2023-11-21T08:32:16;10.20;99.90
37285;DHT22;23172;53.550;9.964;2023-11-21T08:37:18;10.20;99.90
37285;DHT22;23172;53.550;9.964;2023-11-21T08:42:22;10.30;99.90
37285;DHT22;23172;53.550;9.964;2023-11-21T08:47:24;10.40;99.90
37285;DHT22;23172;53.550;9.964;2023-11-21T08:52:27;10.50;99.90
37285;DHT22;23172;53.550;9.964;2023-11-21T08:57:30;10.40;99.80
37285;DHT22;23172;53.550;9.964;2023-11-21T09:02:32;10.40;99.80
37285;DHT22;23172;53.550;9.964;2023-11-21T09:07:34;10.30;99.70
37285;DHT22;23172;53.550;9.964;2023-11-21T09:12:38;10.30;99.20
37285;DHT22;23172;53.550;9.964;2023-11-21T09:17:39;10.20;99.20
37285;DHT22;23172;53.550;9.964;2023-11-21T09:22:41;10.20;99.50
37285;DHT22;23172;53.550;9.964;2023-11-21T09:27:46;10.20;99.40
37285;DHT22;23172;53.550;9.964;2023-11-21T09:32:48;10.20;99.40
37285;DHT22;23172;53.550;9.964;2023-11-21T09:37:50;10.30;99.70
37285;DHT22;23172;53.550;9.964;2023-11-21T09:42:56;10.30;99.50
37285;DHT22;23172;53.550;9.964;2023-11-21T09:47:59;10.40;99.40
37285;DHT22;23172;53.550;9.964;2023-11-21T09:53:09;10.40;99.40
37285;DHT22;23172;53.550;9.964;2023-11-21T09:58:17;10.40;99.30
37285;DHT22;23172;53.550;9.964;2023-11-21T10:03:20;10.50;99.40
37285;DHT22;23172;53.550;9.964;2023-11-21T10:08:22;10.50;99.70
37285;DHT22;23172;53.550;9.964;2023-11-21T10:13:29;10.50;99.30
37285;DHT22;23172;53.550;9.964;2023-11-21T10:18:32;10.60;99.00
37285;DHT22;23172;53.550;9.964;2023-11-21T10:23:35;10.70;99.20
37285;DHT22;23172;53.550;9.964;2023-11-21T10:28:38;10.80;99.10
37285;DHT22;23172;53.550;9.964;2023-11-21T10:33:40;11.00;98.50
37285;DHT22;23172;53.550;9.964;2023-11-21T10:38:42;11.20;98.30
37285;DHT22;23172;53.550;9.964;2023-11-21T10:43:47;11.10;97.70
37285;DHT22;23172;53.550;9.964;2023-11-21T10:48:52;11.10;97.10
37285;DHT22;23172;53.550;9.964;2023-11-21T10:53:56;11.10;96.70
37285;DHT22;23172;53.550;9.964;2023-11-21T10:59:01;11.20;97.10
37285;DHT22;23172;53.550;9.964;2023-11-21T11:04:06;11.20;96.20
37285;DHT22;23172;53.550;9.964;2023-11-21T11:09:15;11.20;96.00
37285;DHT22;23172;53.550;9.964;2023-11-21T11:14:20;11.20;95.50
37285;DHT22;23172;53.550;9.964;2023-11-21T11:19:25;11.00;95.50
37285;DHT22;23172;53.550;9.964;2023-11-21T11:24:41;10.80;95.10
37285;DHT22;23172;53.550;9.964;2023-11-21T11:29:56;10.80;95.50
37285;DHT22;23172;53.550;9.964;2023-11-21T11:35:06;10.80;95.10
37285;DHT22;23172;53.550;9.964;2023-11-21T11:40:12;10.80;95.10
37285;DHT22;23172;53.550;9.964;2023-11-21T11:45:21;10.80;94.60
37285;DHT22;23172;53.550;9.964;2023-11-21T11:50:23;10.90;93.80
37285;DHT22;23172;53.550;9.964;2023-11-21T11:55:27;10.90;93.90
37285;DHT22;23172;53.550;9.964;2023-11-21T12:00:35;11.00;93.80
37285;DHT22;23172;53.550;9.964;2023-11-21T12:05:40;11.10;93.30
37285;DHT22;23172;53.550;9.964;2023-11-21T12:10:45;11.20;92.50
37285;DHT22;23172;53.550;9.964;2023-11-21T12:15:51;11.20;91.80
37285;DHT22;23172;53.550;9.964;2023-11-21T12:20:55;11.00;91.00
37285;DHT22;23172;53.550;9.964;2023-11-21T12:25:57;11.00;91.20
37285;DHT22;23172;53.550;9.964;2023-11-21T12:31:00;10.90;91.00
37285;DHT22;23172;53.550;9.964;2023-11-21T12:36:03;10.80;90.80
37285;DHT22;23172;53.550;9.964;2023-11-21T12:41:06;10.70;90.70
37285;DHT22;23172;53.550;9.964;2023-11-21T12:46:10;10.70;90.70
37285;DHT22;23172;53.550;9.964;2023-11-21T12:51:14;10.60;91.10
37285;DHT22;23172;53.550;9.964;2023-11-21T12:56:16;10.60;91.10
37285;DHT22;23172;53.550;9.964;2023-11-21T13:01:20;10.50;91.20
37285;DHT22;23172;53.550;9.964;2023-11-21T13:06:23;10.50;91.30
37285;DHT22;23172;53.550;9.964;2023-11-21T13:11:26;10.40;91.10
37285;DHT22;23172;53.550;9.964;2023-11-21T13:16:33;10.30;91.80
37285;DHT22;23172;53.550;9.964;2023-11-21T13:21:35;10.30;92.00
37285;DHT22;23172;53.550;9.964;2023-11-21T13:26:40;10.30;92.30
37285;DHT22;23172;53.550;9.964;2023-11-21T13:31:43;10.30;92.60
37285;DHT22;23172;53.550;9.964;2023-11-21T13:36:45;10.20;92.80
37285;DHT22;23172;53.550;9.964;2023-11-21T13:41:48;10.20;93.20
37285;DHT22;23172;53.550;9.964;2023-11-21T13:46:56;10.20;93.60
37285;DHT22;23172;53.550;9.964;2023-11-21T13:51:59;10.20;93.70
37285;DHT22;23172;53.550;9.964;2023-11-21T13:57:03;10.10;93.70
37285;DHT22;23172;53.550;9.964;2023-11-21T14:02:07;10.10;93.60
37285;DHT22;23172;53.550;9.964;2023-11-21T14:07:18;10.10;93.70
37285;DHT22;23172;53.550;9.964;2023-11-21T14:12:30;10.00;93.80
37285;DHT22;23172;53.550;9.964;2023-11-21T14:17:36;10.00;93.70
37285;DHT22;23172;53.550;9.964;2023-11-21T14:22:40;10.00;93.40
37285;DHT22;23172;53.550;9.964;2023-11-21T14:27:41;9.90;93.60
37285;DHT22;23172;53.550;9.964;2023-11-21T14:32:45;9.80;94.00
37285;DHT22;23172;53.550;9.964;2023-11-21T14:37:46;9.80;94.10
37285;DHT22;23172;53.550;9.964;2023-11-21T14:42:48;9.80;94.20
37285;DHT22;23172;53.550;9.964;2023-11-21T14:47:54;9.80;94.30
37285;DHT22;23172;53.550;9.964;2023-11-21T14:53:06;9.70;94.10
37285;DHT22;23172;53.550;9.964;2023-11-21T14:58:08;9.70;93.90
37285;DHT22;23172;53.550;9.964;2023-11-21T15:03:15;9.60;93.80
37285;DHT22;23172;53.550;9.964;2023-11-21T15:08:37;9.60;93.70
37285;DHT22;23172;53.550;9.964;2023-11-21T15:13:39;9.60;93.80
37285;DHT22;23172;53.550;9.964;2023-11-21T15:18:43;9.60;93.80
37285;DHT22;23172;53.550;9.964;2023-11-21T15:23:45;9.50;93.60
37285;DHT22;23172;53.550;9.964;2023-11-21T15:28:47;9.50;93.60
37285;DHT22;23172;53.550;9.964;2023-11-21T15:33:50;9.40;94.20
37285;DHT22;23172;53.550;9.964;2023-11-21T15:38:52;9.40;94.50
37285;DHT22;23172;53.550;9.964;2023-11-21T15:43:54;9.30;94.70
37285;DHT22;23172;53.550;9.964;2023-11-21T15:48:58;9.20;94.90
37285;DHT22;23172;53.550;9.964;2023-11-21T15:54:00;9.20;94.90
37285;DHT22;23172;53.550;9.964;2023-11-21T15:59:02;9.20;94.70
37285;DHT22;23172;53.550;9.964;2023-11-21T16:04:06;9.10;94.80
37285;DHT22;23172;53.550;9.964;2023-11-21T16:09:08;9.10;95.10
37285;DHT22;23172;53.550;9.964;2023-11-21T16:14:21;9.10;95.10
37285;DHT22;23172;53.550;9.964;2023-11-21T16:19:27;9.10;95.40
37285;DHT22;23172;53.550;9.964;2023-11-21T16:24:29;9.10;95.60
37285;DHT22;23172;53.550;9.964;2023-11-21T16:29:33;9.10;95.80
37285;DHT22;23172;53.550;9.964;2023-11-21T16:34:37;9.10;95.90
37285;DHT22;23172;53.550;9.964;2023-11-21T16:39:39;9.10;96.10
37285;DHT22;23172;53.550;9.964;2023-11-21T16:44:42;9.00;96.40
37285;DHT22;23172;53.550;9.964;2023-11-21T16:49:45;8.90;96.80
37285;DHT22;23172;53.550;9.964;2023-11-21T16:54:47;8.90;97.10
37285;DHT22;23172;53.550;9.964;2023-11-21T16:59:49;8.90;97.10
37285;DHT22;23172;53.550;9.964;2023-11-21T17:04:52;8.80;97.50
37285;DHT22;23172;53.550;9.964;2023-11-21T17:09:54;8.80;97.70
37285;DHT22;23172;53.550;9.964;2023-11-21T17:14:56;8.80;97.70
37285;DHT22;23172;53.550;9.964;2023-11-21T17:19:59;8.70;97.90
37285;DHT22;23172;53.550;9.964;2023-11-21T17:25:07;8.70;98.00
37285;DHT22;23172;53.550;9.964;2023-11-21T17:30:10;8.70;98.00
37285;DHT22;23172;53.550;9.964;2023-11-21T17:35:14;8.60;98.00
37285;DHT22;23172;53.550;9.964;2023-11-21T17:40:16;8.50;97.70
37285;DHT22;23172;53.550;9.964;2023-11-21T17:45:18;8.40;98.00
37285;DHT22;23172;53.550;9.964;2023-11-21T17:50:22;8.40;97.50
37285;DHT22;23172;53.550;9.964;2023-11-21T17:55:26;8.40;97.50
37285;DHT22;23172;53.550;9.964;2023-11-21T18:00:29;8.40;97.10
37285;DHT22;23172;53.550;9.964;2023-11-21T18:05:32;8.30;97.00
37285;DHT22;23172;53.550;9.964;2023-11-21T18:10:34;8.30;97.20
37285;DHT22;23172;53.550;9.964;2023-11-21T18:15:36;8.30;97.00
37285;DHT22;23172;53.550;9.964;2023-11-21T18:20:40;8.30;96.90
37285;DHT22;23172;53.550;9.964;2023-11-21T18:25:42;8.30;96.90
37285;DHT22;23172;53.550;9.964;2023-11-21T18:30:44;8.40;96.80
37285;DHT22;23172;53.550;9.964;2023-11-21T18:35:48;8.40;96.70
37285;DHT22;23172;53.550;9.964;2023-11-21T18:40:50;8.40;96.30
37285;DHT22;23172;53.550;9.964;2023-11-21T18:45:52;8.40;96.30
37285;DHT22;23172;53.550;9.964;2023-11-21T18:50:56;8.30;96.20
37285;DHT22;23172;53.550;9.964;2023-11-21T18:55:58;8.30;96.20
37285;DHT22;23172;53.550;9.964;2023-11-21T19:01:00;8.30;96.10
37285;DHT22;23172;53.550;9.964;2023-11-21T19:06:04;8.20;96.20
37285;DHT22;23172;53.550;9.964;2023-11-21T19:16:12;8.20;96.30
37285;DHT22;23172;53.550;9.964;2023-11-21T19:21:16;8.10;96.20
37285;DHT22;23172;53.550;9.964;2023-11-21T19:26:19;8.10;96.20
37285;DHT22;23172;53.550;9.964;2023-11-21T19:31:21;8.10;96.40
37285;DHT22;23172;53.550;9.964;2023-11-21T19:36:25;8.20;96.40
37285;DHT22;23172;53.550;9.964;2023-11-21T19:41:27;8.20;96.50
37285;DHT22;23172;53.550;9.964;2023-11-21T19:46:30;8.20;96.40
37285;DHT22;23172;53.550;9.964;2023-11-21T19:51:33;8.20;96.40
37285;DHT22;23172;53.550;9.964;2023-11-21T19:56:37;8.20;96.20
37285;DHT22;23172;53.550;9.964;2023-11-21T20:01:39;8.20;96.00
37285;DHT22;23172;53.550;9.964;2023-11-21T20:06:42;8.10;95.90
37285;DHT22;23172;53.550;9.964;2023-11-21T20:11:45;8.00;95.90
37285;DHT22;23172;53.550;9.964;2023-11-21T20:16:51;8.00;96.00
37285;DHT22;23172;53.550;9.964;2023-11-21T20:21:57;8.00;96.20
37285;DHT22;23172;53.550;9.964;2023-11-21T20:26:59;7.90;96.30
37285;DHT22;23172;53.550;9.964;2023-11-21T20:32:03;7.90;96.50
37285;DHT22;23172;53.550;9.964;2023-11-21T20:37:08;8.00;96.50
37285;DHT22;23172;53.550;9.964;2023-11-21T20:42:10;8.00;96.50
37285;DHT22;23172;53.550;9.964;2023-11-21T20:47:12;8.00;96.30
37285;DHT22;23172;53.550;9.964;2023-11-21T20:52:15;8.00;96.20
37285;DHT22;23172;53.550;9.964;2023-11-21T20:57:18;8.00;96.30
37285;DHT22;23172;53.550;9.964;2023-11-21T21:02:20;8.00;96.30
37285;DHT22;23172;53.550;9.964;2023-11-21T21:07:24;8.00;96.00
37285;DHT22;23172;53.550;9.964;2023-11-21T21:12:25;8.00;95.90
37285;DHT22;23172;53.550;9.964;2023-11-21T21:17:27;7.90;95.60
37285;DHT22;23172;53.550;9.964;2023-11-21T21:22:30;7.90;95.50
37285;DHT22;23172;53.550;9.964;2023-11-21T21:27:32;7.90;95.60
37285;DHT22;23172;53.550;9.964;2023-11-21T21:32:34;7.80;95.50
37285;DHT22;23172;53.550;9.964;2023-11-21T21:42:40;7.80;95.70
37285;DHT22;23172;53.550;9.964;2023-11-21T21:47:42;7.70;95.30
37285;DHT22;23172;53.550;9.964;2023-11-21T21:52:46;7.60;94.70
37285;DHT22;23172;53.550;9.964;2023-11-21T21:57:47;7.60;95.00
37285;DHT22;23172;53.550;9.964;2023-11-21T22:02:49;7.60;95.20
37285;DHT22;23172;53.550;9.964;2023-11-21T22:07:52;7.50;95.10
37285;DHT22;23172;53.550;9.964;2023-11-21T22:12:54;7.50;95.00
37285;DHT22;23172;53.550;9.964;2023-11-21T23:23:36;7.40;95.00
37285;DHT22;23172;53.550;9.964;2023-11-21T23:28:39;7.00;96.00
37285;DHT22;23172;53.550;9.964;2023-11-21T23:33:41;6.90;96.20
37285;DHT22;23172;53.550;9.964;2023-11-21T23:38:45;6.90;96.40
37285;DHT22;23172;53.550;9.964;2023-11-21T23:43:46;6.90;96.30
37285;DHT22;23172;53.550;9.964;2023-11-21T23:48:49;6.80;96.40
37285;DHT22;23172;53.550;9.964;2023-11-21T23:53:52;6.70;96.60
37285;DHT22;23172;53.550;9.964;2023-11-21T23:58:54;6.70;96.50
